Time;durP1;ratioP1;P1;durP2;ratioP2;P2;SDS_P1;SDS_P2;PMS_P1;PMS_P2;Temp;Humidity;BMP_temperature;BMP_pressure;BME280_temperature;BME280_humidity;BME280_pressure;Samples;Min_cycle;Max_cycle;Signal;HPM_P1;HPM_P2
2022/08/31 00:05:58;;;;;;;29.10;4.38;;;;;;;;;;5001080;28;20578;-69
2022/08/31 00:08:25;;;;;;;29.30;4.18;;;;;;;;;;5001229;28;20049;-69
2022/08/31 00:10:53;;;;;;;25.73;4.03;;;;;;;;;;4998089;28;20049;-70
2022/08/31 00:13:21;;;;;;;20.55;3.83;;;;;;;;;;5000583;28;20133;-67
2022/08/31 00:15:47;;;;;;;22.08;3.63;;;;;;;;;;5002196;28;20041;-70
2022/08/31 00:18:14;;;;;;;24.13;3.95;;;;;;;;;;4998242;28;20115;-71
2022/08/31 00:20:41;;;;;;;27.40;3.75;;;;;;;;;;5001491;28;20504;-68
2022/08/31 00:23:10;;;;;;;23.55;4.05;;;;;;;;;;4999550;28;20165;-69
2022/08/31 00:25:38;;;;;;;21.20;3.60;;;;;;;;;;4982386;28;20065;-70
2022/08/31 00:28:04;;;;;;;21.75;4.20;;;;;;;;;;5000330;28;20054;-69
2022/08/31 00:30:31;;;;;;;22.92;4.22;;;;;;;;;;4997064;28;20045;-69
2022/08/31 00:32:58;;;;;;;17.67;3.65;;;;;;;;;;5001656;28;20580;-68
2022/08/31 00:35:24;;;;;;;19.10;3.72;;;;;;;;;;5003259;28;20049;-69
2022/08/31 00:37:50;;;;;;;21.65;3.67;;;;;;;;;;4999818;28;20405;-69
2022/08/31 00:40:16;;;;;;;29.02;4.28;;;;;;;;;;4997307;28;20054;-70
2022/08/31 00:42:42;;;;;;;20.55;3.80;;;;;;;;;;4982450;28;20347;-68
2022/08/31 00:45:08;;;;;;;18.15;3.40;;;;;;;;;;5001928;28;20042;-69
2022/08/31 00:47:35;;;;;;;29.00;4.15;;;;;;;;;;5001566;28;20085;-70
2022/08/31 00:50:06;;;;;;;17.55;3.60;;;;;;;;;;4998426;28;20053;-69
2022/08/31 00:52:36;;;;;;;19.25;3.17;;;;;;;;;;4997652;28;20069;-68
2022/08/31 00:55:11;;;;;;;25.45;3.80;;;;;;;;;;4999732;28;20554;-68
2022/08/31 00:57:40;;;;;;;15.30;3.33;;;;;;;;;;5001045;28;20042;-67
2022/08/31 01:00:13;;;;;;;16.20;3.20;;;;;;;;;;4998156;28;20060;-69
2022/08/31 01:02:39;;;;;;;19.13;3.00;;;;;;;;;;4999882;28;20073;-67
2022/08/31 01:05:10;;;;;;;24.55;3.28;;;;;;;;;;5001149;28;20475;-68
2022/08/31 01:07:38;;;;;;;17.98;3.55;;;;;;;;;;5002454;28;20516;-70
2022/08/31 01:10:04;;;;;;;23.33;3.70;;;;;;;;;;5001538;28;20064;-68
2022/08/31 01:12:30;;;;;;;15.93;2.63;;;;;;;;;;5004032;28;20063;-68
2022/08/31 01:14:58;;;;;;;22.05;3.95;;;;;;;;;;5005167;28;20132;-66
2022/08/31 01:17:24;;;;;;;17.30;3.05;;;;;;;;;;5002794;28;20053;-68
2022/08/31 01:20:07;;;;;;;16.10;2.75;;;;;;;;;;4984242;28;20052;-67
2022/08/31 01:22:43;;;;;;;21.67;3.67;;;;;;;;;;5004111;28;20046;-67
2022/08/31 01:25:09;;;;;;;19.13;2.60;;;;;;;;;;5001512;28;20104;-67
2022/08/31 01:27:36;;;;;;;15.75;2.70;;;;;;;;;;5001644;28;20057;-73
2022/08/31 01:30:08;;;;;;;17.85;3.15;;;;;;;;;;4996319;28;20045;-69
2022/08/31 01:32:34;;;;;;;20.38;3.53;;;;;;;;;;5001067;28;20046;-71
2022/08/31 01:35:00;;;;;;;16.75;3.00;;;;;;;;;;5000883;28;20453;-68
2022/08/31 01:37:26;;;;;;;19.40;3.00;;;;;;;;;;5004421;28;20056;-69
2022/08/31 01:39:52;;;;;;;16.50;2.95;;;;;;;;;;4982542;28;20479;-67
2022/08/31 01:42:18;;;;;;;16.50;3.38;;;;;;;;;;5003589;28;20054;-67
2022/08/31 01:44:44;;;;;;;25.02;3.97;;;;;;;;;;5000994;28;20049;-69
2022/08/31 01:47:10;;;;;;;16.58;2.80;;;;;;;;;;5001827;28;20042;-68
2022/08/31 01:49:36;;;;;;;14.43;3.15;;;;;;;;;;4997275;28;20042;-67
2022/08/31 01:52:03;;;;;;;15.15;3.83;;;;;;;;;;5001479;28;20060;-67
2022/08/31 01:54:28;;;;;;;19.20;3.63;;;;;;;;;;5003681;28;20065;-66
2022/08/31 01:56:55;;;;;;;19.50;3.10;;;;;;;;;;5003324;28;20136;-68
2022/08/31 01:59:21;;;;;;;18.58;3.42;;;;;;;;;;5002734;28;20050;-67
2022/08/31 02:01:51;;;;;;;17.52;4.13;;;;;;;;;;4983643;28;21168;-66
2022/08/31 02:04:19;;;;;;;16.00;3.30;;;;;;;;;;5004966;28;20128;-69
2022/08/31 02:06:53;;;;;;;18.27;3.25;;;;;;;;;;5002690;28;20058;-68
2022/08/31 02:09:21;;;;;;;18.08;3.20;;;;;;;;;;5002841;28;20058;-67
2022/08/31 02:11:47;;;;;;;19.05;3.65;;;;;;;;;;4979747;28;20681;-67
2022/08/31 02:14:13;;;;;;;16.60;3.03;;;;;;;;;;5001973;28;20103;-67
2022/08/31 02:16:39;;;;;;;26.05;3.75;;;;;;;;;;5003389;28;20046;-66
2022/08/31 02:19:05;;;;;;;23.63;4.05;;;;;;;;;;4985238;28;20131;-68
2022/08/31 02:21:32;;;;;;;18.67;2.85;;;;;;;;;;4999642;28;20483;-67
2022/08/31 02:23:58;;;;;;;16.30;3.65;;;;;;;;;;5003440;28;20050;-67
2022/08/31 02:26:24;;;;;;;14.02;3.42;;;;;;;;;;5003817;28;20053;-67
2022/08/31 02:28:50;;;;;;;18.70;3.63;;;;;;;;;;5000688;28;20585;-66
2022/08/31 02:31:16;;;;;;;18.83;3.95;;;;;;;;;;4996744;28;20490;-67
2022/08/31 02:33:42;;;;;;;18.27;3.60;;;;;;;;;;4998545;28;20056;-68
2022/08/31 02:36:09;;;;;;;21.65;3.85;;;;;;;;;;5003927;28;20099;-69
2022/08/31 02:38:36;;;;;;;12.65;2.97;;;;;;;;;;4998183;28;20038;-66
2022/08/31 02:41:03;;;;;;;12.98;3.08;;;;;;;;;;4980882;28;20945;-66
2022/08/31 02:43:29;;;;;;;18.00;3.60;;;;;;;;;;5000793;28;20622;-71
2022/08/31 02:45:55;;;;;;;18.83;3.58;;;;;;;;;;5001712;28;20054;-66
2022/08/31 02:48:21;;;;;;;24.42;4.05;;;;;;;;;;5002846;28;20117;-68
2022/08/31 02:50:49;;;;;;;15.25;3.60;;;;;;;;;;4996141;28;20436;-66
2022/08/31 02:53:16;;;;;;;27.67;3.95;;;;;;;;;;5003506;28;20053;-66
2022/08/31 02:55:42;;;;;;;14.77;3.08;;;;;;;;;;5002580;28;20895;-68
2022/08/31 02:58:10;;;;;;;20.48;3.83;;;;;;;;;;5004828;28;20041;-65
2022/08/31 03:00:38;;;;;;;18.48;3.70;;;;;;;;;;4999616;28;20046;-67
2022/08/31 03:03:03;;;;;;;21.20;3.72;;;;;;;;;;5001778;28;20503;-67
2022/08/31 03:05:29;;;;;;;21.55;3.53;;;;;;;;;;5001299;28;20069;-68
2022/08/31 03:07:56;;;;;;;18.83;3.50;;;;;;;;;;5002968;28;20064;-66
2022/08/31 03:10:24;;;;;;;24.15;3.58;;;;;;;;;;4998174;28;20134;-66
2022/08/31 03:12:51;;;;;;;18.38;3.70;;;;;;;;;;5002050;28;20507;-66
2022/08/31 03:15:20;;;;;;;21.48;3.60;;;;;;;;;;4983545;28;20513;-66
2022/08/31 03:17:47;;;;;;;13.48;2.92;;;;;;;;;;5002859;28;20050;-68
2022/08/31 03:20:21;;;;;;;22.25;3.42;;;;;;;;;;4999738;28;20045;-66
2022/08/31 03:22:47;;;;;;;19.13;3.70;;;;;;;;;;5001036;28;20050;-67
2022/08/31 03:25:16;;;;;;;19.25;3.08;;;;;;;;;;4998675;28;20060;-66
2022/08/31 03:27:43;;;;;;;17.42;3.42;;;;;;;;;;5002920;28;20452;-67
2022/08/31 03:30:15;;;;;;;14.20;3.13;;;;;;;;;;4998565;28;20052;-66
2022/08/31 03:32:41;;;;;;;26.27;3.83;;;;;;;;;;4998774;28;20097;-67
2022/08/31 03:35:08;;;;;;;16.83;3.33;;;;;;;;;;5002823;28;20045;-66
2022/08/31 03:37:34;;;;;;;16.80;3.45;;;;;;;;;;5003714;28;20042;-67
2022/08/31 03:40:00;;;;;;;18.13;3.28;;;;;;;;;;5000002;28;20523;-66
2022/08/31 03:42:27;;;;;;;17.98;3.72;;;;;;;;;;5002127;28;20049;-65
2022/08/31 03:44:53;;;;;;;22.73;3.75;;;;;;;;;;4998221;28;20064;-65
2022/08/31 03:47:18;;;;;;;18.42;2.70;;;;;;;;;;5000193;28;20049;-67
2022/08/31 03:49:44;;;;;;;21.17;3.20;;;;;;;;;;4999398;28;20566;-67
2022/08/31 03:52:11;;;;;;;18.02;3.47;;;;;;;;;;5001672;28;20113;-67
2022/08/31 03:54:37;;;;;;;19.40;3.83;;;;;;;;;;5001477;28;20038;-68
2022/08/31 03:57:06;;;;;;;21.38;3.80;;;;;;;;;;5000865;28;20495;-67
2022/08/31 03:59:35;;;;;;;18.42;3.70;;;;;;;;;;4999707;28;20527;-68
2022/08/31 04:02:01;;;;;;;22.25;3.20;;;;;;;;;;5000002;28;20076;-68
2022/08/31 04:04:27;;;;;;;21.25;3.67;;;;;;;;;;4999910;28;20073;-66
2022/08/31 04:06:53;;;;;;;21.02;3.33;;;;;;;;;;5002529;28;20077;-67
2022/08/31 04:09:19;;;;;;;20.23;3.88;;;;;;;;;;5001233;28;20143;-66
2022/08/31 04:11:44;;;;;;;17.45;3.85;;;;;;;;;;4998632;28;20045;-66
2022/08/31 04:14:11;;;;;;;18.70;3.47;;;;;;;;;;5001955;28;20124;-67
2022/08/31 04:16:38;;;;;;;19.20;3.75;;;;;;;;;;4984254;28;20041;-67
2022/08/31 04:19:05;;;;;;;24.95;4.28;;;;;;;;;;5001269;28;20132;-67
2022/08/31 04:21:32;;;;;;;23.00;4.00;;;;;;;;;;4996119;28;20324;-66
2022/08/31 04:23:59;;;;;;;17.05;3.90;;;;;;;;;;4999515;28;20042;-67
2022/08/31 04:26:29;;;;;;;24.70;3.55;;;;;;;;;;4983946;28;20062;-66
2022/08/31 04:28:56;;;;;;;16.55;3.50;;;;;;;;;;5001231;28;20123;-65
2022/08/31 04:31:24;;;;;;;22.88;3.78;;;;;;;;;;4998124;28;20073;-66
2022/08/31 04:33:50;;;;;;;14.70;3.80;;;;;;;;;;4999860;28;20049;-66
2022/08/31 04:36:22;;;;;;;18.77;3.70;;;;;;;;;;4999563;28;20065;-66
2022/08/31 04:38:50;;;;;;;18.27;4.05;;;;;;;;;;5004980;28;20128;-68
2022/08/31 04:41:19;;;;;;;19.33;3.53;;;;;;;;;;4996372;28;20050;-67
2022/08/31 04:43:48;;;;;;;16.20;3.45;;;;;;;;;;5000700;28;20058;-66
2022/08/31 04:46:14;;;;;;;18.67;3.83;;;;;;;;;;5000870;28;20049;-66
2022/08/31 04:48:41;;;;;;;21.33;3.83;;;;;;;;;;4999414;28;20133;-66
2022/08/31 04:51:12;;;;;;;22.42;3.92;;;;;;;;;;4998225;28;20553;-68
2022/08/31 04:53:40;;;;;;;23.90;3.97;;;;;;;;;;4999268;28;20038;-67
2022/08/31 04:56:13;;;;;;;20.33;3.88;;;;;;;;;;4999563;28;20041;-72
2022/08/31 04:58:44;;;;;;;16.48;3.65;;;;;;;;;;4999328;28;20046;-66
2022/08/31 05:01:12;;;;;;;15.20;3.85;;;;;;;;;;4995978;28;20112;-67
2022/08/31 05:03:42;;;;;;;17.92;4.13;;;;;;;;;;4998585;28;20074;-68
2022/08/31 05:06:13;;;;;;;21.60;4.00;;;;;;;;;;4995783;28;20415;-67
2022/08/31 05:08:40;;;;;;;16.20;3.60;;;;;;;;;;4999389;28;20095;-67
2022/08/31 05:11:14;;;;;;;21.30;3.50;;;;;;;;;;4976903;28;20096;-66
2022/08/31 05:13:40;;;;;;;23.13;4.05;;;;;;;;;;5000040;28;20068;-67
2022/08/31 05:16:09;;;;;;;18.10;3.70;;;;;;;;;;5000539;28;20161;-68
2022/08/31 05:18:40;;;;;;;15.70;3.28;;;;;;;;;;4981977;28;20038;-67
2022/08/31 05:21:14;;;;;;;22.13;3.83;;;;;;;;;;4995911;28;20042;-66
2022/08/31 05:23:40;;;;;;;18.13;4.33;;;;;;;;;;4997541;28;20081;-67
2022/08/31 05:26:07;;;;;;;15.43;3.38;;;;;;;;;;4994096;28;20038;-66
2022/08/31 05:28:34;;;;;;;19.55;3.65;;;;;;;;;;4978400;28;20418;-72
2022/08/31 05:31:02;;;;;;;20.75;3.42;;;;;;;;;;4994002;28;20054;-71
2022/08/31 05:33:28;;;;;;;14.38;3.40;;;;;;;;;;5000339;28;20045;-72
2022/08/31 05:35:55;;;;;;;16.70;3.17;;;;;;;;;;4998595;28;20111;-73
2022/08/31 05:38:21;;;;;;;13.38;3.15;;;;;;;;;;4999917;28;20061;-72
2022/08/31 05:40:54;;;;;;;15.27;3.08;;;;;;;;;;4997892;28;20045;-71
2022/08/31 05:43:21;;;;;;;18.58;3.70;;;;;;;;;;4996686;28;20128;-71
2022/08/31 05:45:47;;;;;;;21.33;3.80;;;;;;;;;;4996488;28;20062;-72
2022/08/31 05:48:13;;;;;;;21.13;4.25;;;;;;;;;;4996963;28;20172;-73
2022/08/31 05:50:40;;;;;;;18.80;4.03;;;;;;;;;;4995772;28;20403;-72
2022/08/31 05:53:06;;;;;;;21.58;4.00;;;;;;;;;;5000456;28;20050;-71
2022/08/31 05:55:32;;;;;;;17.25;3.38;;;;;;;;;;5003230;28;20088;-73
2022/08/31 05:57:59;;;;;;;31.90;4.55;;;;;;;;;;5002021;28;20423;-74
2022/08/31 06:00:24;;;;;;;21.88;3.88;;;;;;;;;;4999548;28;20078;-72
2022/08/31 06:02:51;;;;;;;26.77;3.80;;;;;;;;;;5001570;28;20054;-74
2022/08/31 06:05:17;;;;;;;20.73;3.88;;;;;;;;;;5001915;28;20683;-69
2022/08/31 06:07:44;;;;;;;27.58;3.78;;;;;;;;;;5003166;28;20511;-71
2022/08/31 06:10:10;;;;;;;23.48;4.00;;;;;;;;;;4997020;28;20049;-71
2022/08/31 06:12:37;;;;;;;20.00;4.10;;;;;;;;;;5002631;28;20038;-73
2022/08/31 06:15:04;;;;;;;28.98;3.97;;;;;;;;;;4997802;28;20570;-74
2022/08/31 06:17:31;;;;;;;22.75;4.53;;;;;;;;;;5003546;28;20046;-72
2022/08/31 06:19:58;;;;;;;20.75;3.65;;;;;;;;;;4996130;28;20060;-73
2022/08/31 06:22:24;;;;;;;21.00;4.03;;;;;;;;;;5000840;28;20127;-73
2022/08/31 06:24:50;;;;;;;24.17;4.30;;;;;;;;;;4997325;28;20076;-74
2022/08/31 06:27:17;;;;;;;16.45;4.32;;;;;;;;;;5000870;28;20050;-72
2022/08/31 06:29:44;;;;;;;26.90;4.25;;;;;;;;;;4994128;28;20135;-71
2022/08/31 06:32:14;;;;;;;20.23;3.95;;;;;;;;;;4998757;28;20046;-73
2022/08/31 06:34:42;;;;;;;20.58;4.18;;;;;;;;;;4997833;28;20340;-73
2022/08/31 06:37:09;;;;;;;21.13;4.10;;;;;;;;;;4999784;28;20054;-71
2022/08/31 06:39:36;;;;;;;26.80;4.13;;;;;;;;;;4997411;28;20085;-72
2022/08/31 06:42:02;;;;;;;25.88;4.40;;;;;;;;;;4996509;28;20393;-72
2022/08/31 06:44:28;;;;;;;25.58;3.72;;;;;;;;;;4999836;28;20045;-74
2022/08/31 06:46:55;;;;;;;22.98;3.50;;;;;;;;;;4998762;28;20588;-74
2022/08/31 06:49:22;;;;;;;31.40;4.80;;;;;;;;;;4995519;28;20054;-71
2022/08/31 06:51:49;;;;;;;25.88;4.63;;;;;;;;;;4999654;28;20418;-73
2022/08/31 06:54:18;;;;;;;24.70;4.05;;;;;;;;;;5005497;28;20062;-72
2022/08/31 06:56:44;;;;;;;20.27;4.30;;;;;;;;;;5001505;28;20057;-72
2022/08/31 06:59:11;;;;;;;25.38;4.20;;;;;;;;;;5000909;28;20081;-72
2022/08/31 07:01:38;;;;;;;20.35;3.35;;;;;;;;;;4993827;28;20054;-73
2022/08/31 07:04:07;;;;;;;21.48;4.35;;;;;;;;;;5001721;28;20105;-74
2022/08/31 07:06:36;;;;;;;24.05;4.82;;;;;;;;;;4977412;28;20679;-73
2022/08/31 07:09:05;;;;;;;29.70;4.70;;;;;;;;;;5000902;28;20176;-71
2022/08/31 07:11:37;;;;;;;25.58;3.97;;;;;;;;;;5002851;28;20046;-74
2022/08/31 07:14:03;;;;;;;18.02;3.67;;;;;;;;;;4999937;28;20412;-69
2022/08/31 07:16:30;;;;;;;22.88;4.40;;;;;;;;;;5008991;28;20111;-78
2022/08/31 07:18:59;;;;;;;21.63;4.13;;;;;;;;;;5005933;28;20096;-74
2022/08/31 07:21:28;;;;;;;18.95;3.92;;;;;;;;;;5007343;28;20399;-73
2022/08/31 07:23:57;;;;;;;22.50;4.60;;;;;;;;;;5004626;28;20404;-74
2022/08/31 07:26:46;;;;;;;24.58;4.30;;;;;;;;;;4987518;28;20054;-71
2022/08/31 07:29:14;;;;;;;20.83;3.47;;;;;;;;;;5010986;28;20125;-73
2022/08/31 07:31:47;;;;;;;31.00;4.43;;;;;;;;;;5007026;28;20148;-72
2022/08/31 07:34:19;;;;;;;27.77;4.28;;;;;;;;;;5007174;28;20049;-78
2022/08/31 07:42:23;;;;;;;27.23;3.92;;;;;;;;;;5008456;28;20097;-73
2022/08/31 07:44:51;;;;;;;19.25;4.25;;;;;;;;;;4990946;28;20072;-71
2022/08/31 07:47:19;;;;;;;17.13;3.95;;;;;;;;;;5016594;28;20056;-71
2022/08/31 07:49:49;;;;;;;24.45;4.00;;;;;;;;;;5013414;28;20407;-73
2022/08/31 07:52:24;;;;;;;25.98;4.10;;;;;;;;;;5009299;28;20046;-74
2022/08/31 07:54:53;;;;;;;18.55;3.83;;;;;;;;;;5013761;28;20046;-71
2022/08/31 07:57:21;;;;;;;25.58;3.70;;;;;;;;;;5010618;28;20042;-70
2022/08/31 07:59:53;;;;;;;27.77;4.68;;;;;;;;;;5018607;28;20050;-71
2022/08/31 08:02:20;;;;;;;22.52;4.68;;;;;;;;;;5024832;28;20041;-72
2022/08/31 08:04:49;;;;;;;22.92;4.43;;;;;;;;;;4996259;28;20053;-69
2022/08/31 08:07:16;;;;;;;26.15;4.25;;;;;;;;;;5011479;28;20498;-70
2022/08/31 08:09:42;;;;;;;24.63;4.18;;;;;;;;;;5008954;28;20164;-69
2022/08/31 08:12:08;;;;;;;24.48;4.53;;;;;;;;;;5015918;28;20113;-68
2022/08/31 08:14:38;;;;;;;27.20;4.35;;;;;;;;;;5007377;28;20129;-71
2022/08/31 08:17:05;;;;;;;20.42;4.18;;;;;;;;;;5011719;28;20116;-66
2022/08/31 08:19:32;;;;;;;22.95;4.15;;;;;;;;;;5014975;28;20049;-68
2022/08/31 08:22:01;;;;;;;24.88;4.07;;;;;;;;;;5007915;28;20046;-69
2022/08/31 08:24:30;;;;;;;25.10;4.15;;;;;;;;;;5007590;28;20085;-70
2022/08/31 08:26:56;;;;;;;29.30;4.35;;;;;;;;;;5011674;28;20443;-75
2022/08/31 08:29:22;;;;;;;18.98;3.95;;;;;;;;;;5015416;28;20050;-72
2022/08/31 08:31:52;;;;;;;20.38;4.25;;;;;;;;;;5006217;28;20265;-70
2022/08/31 08:34:22;;;;;;;18.60;3.85;;;;;;;;;;5007818;28;20779;-72
2022/08/31 08:36:49;;;;;;;23.33;3.85;;;;;;;;;;5009243;28;20491;-73
2022/08/31 08:39:17;;;;;;;22.70;4.15;;;;;;;;;;5009208;28;20069;-72
2022/08/31 08:41:45;;;;;;;23.67;3.95;;;;;;;;;;5007223;28;20060;-71
2022/08/31 08:44:14;;;;;;;19.30;3.65;;;;;;;;;;5005085;28;20081;-72
2022/08/31 08:46:48;;;;;;;30.65;4.53;;;;;;;;;;5008988;28;20431;-72
2022/08/31 08:49:17;;;;;;;;;;;;;;;;;;5008417;28;20069;-71
2022/08/31 08:51:44;;;;;;;30.92;4.35;;;;;;;;;;5010355;28;20375;-73
2022/08/31 08:54:14;;;;;;;21.23;4.03;;;;;;;;;;5009116;28;20061;-72
2022/08/31 08:56:46;;;;;;;25.42;4.20;;;;;;;;;;5012936;28;20041;-72
2022/08/31 08:59:14;;;;;;;18.38;3.60;;;;;;;;;;5005362;28;20495;-70
2022/08/31 09:01:43;;;;;;;20.77;3.25;;;;;;;;;;5007601;28;20152;-71
2022/08/31 09:04:22;;;;;;;19.75;3.45;;;;;;;;;;5003898;28;20133;-72
2022/08/31 09:07:03;;;;;;;21.77;4.43;;;;;;;;;;5003851;28;20096;-72
2022/08/31 09:10:18;;;;;;;23.52;3.97;;;;;;;;;;5007981;28;20057;-73
2022/08/31 09:13:02;;;;;;;18.10;3.65;;;;;;;;;;5002333;28;20496;-75
2022/08/31 09:15:44;;;;;;;;;;;;;;;;;;4996847;28;20531;-71
2022/08/31 09:18:25;;;;;;;23.08;3.95;;;;;;;;;;4999987;28;19925;-64
2022/08/31 09:21:24;;;;;;;17.40;3.53;;;;;;;;;;5003812;28;20041;-66
2022/08/31 09:23:58;;;;;;;19.38;3.83;;;;;;;;;;5003377;28;20046;-65
2022/08/31 09:26:26;;;;;;;18.85;3.70;;;;;;;;;;5006286;28;20054;-65
2022/08/31 09:28:55;;;;;;;24.85;4.50;;;;;;;;;;5009905;28;20050;-67
2022/08/31 09:31:37;;;;;;;21.20;4.25;;;;;;;;;;5006081;28;20516;-66
2022/08/31 09:34:11;;;;;;;22.63;4.35;;;;;;;;;;5007773;28;20050;-67
2022/08/31 09:36:39;;;;;;;;;;;;;;;;;;5001648;28;20515;-66
2022/08/31 09:39:27;;;;;;;20.23;4.25;;;;;;;;;;4988174;28;19957;-65
2022/08/31 09:41:56;;;;;;;27.60;3.80;;;;;;;;;;5000459;28;20054;-67
2022/08/31 09:44:30;;;;;;;22.25;4.10;;;;;;;;;;5014892;28;20050;-65
2022/08/31 09:47:01;;;;;;;27.25;5.00;;;;;;;;;;5011352;28;20877;-66
2022/08/31 09:49:35;;;;;;;23.23;4.45;;;;;;;;;;5012950;28;20053;-66
2022/08/31 09:55:24;;;;;;;24.63;4.15;;;;;;;;;;5007894;28;20058;-65
2022/08/31 09:58:10;;;;;;;25.38;4.13;;;;;;;;;;5004543;28;20495;-65
2022/08/31 10:00:41;;;;;;;24.40;4.30;;;;;;;;;;5011007;28;20050;-67
2022/08/31 10:03:17;;;;;;;22.27;4.13;;;;;;;;;;4985340;28;20041;-66
2022/08/31 10:05:43;;;;;;;23.02;3.88;;;;;;;;;;5004173;28;20409;-72
2022/08/31 10:08:32;;;;;;;25.98;4.15;;;;;;;;;;5003190;28;20415;-67
2022/08/31 10:11:09;;;;;;;32.15;4.53;;;;;;;;;;5018567;28;20068;-68
2022/08/31 10:13:59;;;;;;;24.20;4.15;;;;;;;;;;5010709;28;20140;-65
2022/08/31 10:16:31;;;;;;;26.98;4.60;;;;;;;;;;5009594;28;20107;-66
2022/08/31 10:19:10;;;;;;;24.90;4.32;;;;;;;;;;5007881;28;20053;-67
2022/08/31 10:21:52;;;;;;;23.02;4.45;;;;;;;;;;5000472;28;20561;-67
2022/08/31 10:24:33;;;;;;;24.67;4.80;;;;;;;;;;5016240;28;20068;-67
2022/08/31 10:27:05;;;;;;;22.27;4.30;;;;;;;;;;5016415;28;20137;-70
2022/08/31 10:29:38;;;;;;;31.05;5.13;;;;;;;;;;5007377;28;20137;-67
2022/08/31 10:32:22;;;;;;;31.17;4.68;;;;;;;;;;5010575;28;20133;-67
2022/08/31 10:35:04;;;;;;;22.95;4.35;;;;;;;;;;5012080;28;20042;-68
2022/08/31 10:37:55;;;;;;;21.65;3.88;;;;;;;;;;4991395;28;20392;-68
2022/08/31 10:40:30;;;;;;;25.92;4.20;;;;;;;;;;5010060;28;20073;-68
2022/08/31 10:43:08;;;;;;;24.92;4.47;;;;;;;;;;5010738;28;20822;-65
2022/08/31 10:45:39;;;;;;;29.30;4.40;;;;;;;;;;4993241;28;20565;-66
2022/08/31 10:48:05;;;;;;;21.10;4.70;;;;;;;;;;5009982;28;20096;-68
2022/08/31 10:50:50;;;;;;;30.27;5.10;;;;;;;;;;4994395;28;20057;-69
2022/08/31 10:53:39;;;;;;;23.95;4.82;;;;;;;;;;5006765;28;20459;-66
2022/08/31 10:56:21;;;;;;;20.92;4.22;;;;;;;;;;4909843;29;20099;-68
2022/08/31 10:59:07;;;;;;;21.88;4.55;;;;;;;;;;4911237;29;20056;-67
2022/08/31 11:01:42;;;;;;;26.23;4.82;;;;;;;;;;4923978;29;20064;-66
2022/08/31 11:04:30;;;;;;;26.95;4.65;;;;;;;;;;4910817;29;20048;-69
2022/08/31 11:07:17;;;;;;;21.83;4.28;;;;;;;;;;4911658;29;20060;-68
2022/08/31 11:10:05;;;;;;;20.90;3.90;;;;;;;;;;4912289;29;20510;-66
2022/08/31 11:12:41;;;;;;;26.90;4.20;;;;;;;;;;4914761;29;20188;-74
2022/08/31 11:15:22;;;;;;;23.35;4.70;;;;;;;;;;4903378;29;20100;-73
2022/08/31 11:18:05;;;;;;;29.33;4.55;;;;;;;;;;4911891;29;20084;-74
2022/08/31 11:20:53;;;;;;;25.70;4.50;;;;;;;;;;4909019;29;20223;-74
2022/08/31 11:23:25;;;;;;;27.45;4.38;;;;;;;;;;4906636;29;20052;-73
2022/08/31 11:26:42;;;;;;;27.85;4.60;;;;;;;;;;4908990;29;20059;-72
2022/08/31 11:29:27;;;;;;;29.27;4.55;;;;;;;;;;4871976;29;20049;-73
2022/08/31 11:31:59;;;;;;;20.05;4.80;;;;;;;;;;4871032;29;20061;-73
2022/08/31 11:34:33;;;;;;;30.52;4.60;;;;;;;;;;4956773;28;20054;-71
2022/08/31 11:37:02;;;;;;;22.45;4.88;;;;;;;;;;4934809;29;20050;-74
2022/08/31 11:39:34;;;;;;;33.90;4.88;;;;;;;;;;4940217;28;20093;-71
2022/08/31 11:42:36;;;;;;;33.75;5.00;;;;;;;;;;4946384;28;20083;-72
2022/08/31 11:45:05;;;;;;;25.13;4.68;;;;;;;;;;4948091;28;20057;-73
2022/08/31 11:47:41;;;;;;;21.98;4.45;;;;;;;;;;4949901;28;20190;-71
2022/08/31 11:50:32;;;;;;;28.00;4.75;;;;;;;;;;4940874;28;20063;-72
2022/08/31 11:53:02;;;;;;;17.88;4.28;;;;;;;;;;4951443;28;20047;-73
2022/08/31 11:55:44;;;;;;;23.42;4.80;;;;;;;;;;4950853;28;20055;-73
2022/08/31 11:58:21;;;;;;;30.65;4.38;;;;;;;;;;4925385;29;20108;-73
2022/08/31 12:01:01;;;;;;;26.02;4.15;;;;;;;;;;4977724;28;20045;-74
2022/08/31 12:03:36;;;;;;;24.60;4.43;;;;;;;;;;5010269;28;20148;-73
2022/08/31 12:06:04;;;;;;;33.00;5.18;;;;;;;;;;5001779;28;20481;-74
2022/08/31 12:08:48;;;;;;;25.98;4.75;;;;;;;;;;5008569;28;20050;-73
2022/08/31 12:11:22;;;;;;;;;;;;;;;;;;5005475;28;20094;-73
2022/08/31 12:13:54;;;;;;;;;;;;;;;;;;5009792;28;20361;-72
2022/08/31 12:16:42;;;;;;;26.48;4.93;;;;;;;;;;5007850;28;19925;-73
2022/08/31 12:25:33;;;;;;;23.58;4.90;;;;;;;;;;5005641;28;20486;-69
2022/08/31 12:28:05;;;;;;;28.83;4.90;;;;;;;;;;5009510;28;20050;-67
2022/08/31 12:30:31;;;;;;;29.33;5.15;;;;;;;;;;4981255;28;20113;-73
2022/08/31 12:33:00;;;;;;;41.42;5.47;;;;;;;;;;5002170;28;20054;-64
2022/08/31 12:35:29;;;;;;;37.58;5.68;;;;;;;;;;4993010;28;20148;-65
2022/08/31 12:38:01;;;;;;;36.53;5.40;;;;;;;;;;5007610;28;20545;-67
2022/08/31 12:40:31;;;;;;;35.13;5.65;;;;;;;;;;4980597;28;20052;-71
2022/08/31 12:43:03;;;;;;;37.40;5.47;;;;;;;;;;5011992;28;20525;-67
2022/08/31 12:45:35;;;;;;;30.15;4.80;;;;;;;;;;5006766;28;20047;-64
2022/08/31 12:48:07;;;;;;;32.45;5.22;;;;;;;;;;5005637;28;20539;-67
2022/08/31 12:50:43;;;;;;;24.33;5.07;;;;;;;;;;5014814;28;20385;-65
2022/08/31 12:53:32;;;;;;;39.85;5.72;;;;;;;;;;5004567;28;20045;-65
2022/08/31 12:56:09;;;;;;;36.05;5.63;;;;;;;;;;5007082;28;20145;-66
2022/08/31 12:59:15;;;;;;;34.67;5.28;;;;;;;;;;5006995;28;20050;-64
2022/08/31 13:01:46;;;;;;;33.97;5.38;;;;;;;;;;5001972;28;20060;-63
2022/08/31 13:04:15;;;;;;;31.10;5.50;;;;;;;;;;5010263;28;20092;-65
2022/08/31 13:06:43;;;;;;;43.60;6.03;;;;;;;;;;5010475;28;20042;-64
2022/08/31 13:09:31;;;;;;;38.50;6.00;;;;;;;;;;5010039;28;20046;-66
2022/08/31 13:12:00;;;;;;;38.53;6.38;;;;;;;;;;5010275;28;20042;-64
2022/08/31 13:14:29;;;;;;;43.35;5.95;;;;;;;;;;5013398;28;20403;-66
2022/08/31 13:17:02;;;;;;;40.33;6.05;;;;;;;;;;5014614;28;20069;-65
2022/08/31 13:19:32;;;;;;;38.25;6.20;;;;;;;;;;5011034;28;20077;-66
2022/08/31 13:22:03;;;;;;;41.60;6.60;;;;;;;;;;5010708;28;20050;-65
2022/08/31 13:24:33;;;;;;;39.60;6.38;;;;;;;;;;5012181;28;20045;-65
2022/08/31 13:27:24;;;;;;;45.90;6.55;;;;;;;;;;5010884;28;20038;-65
2022/08/31 13:29:52;;;;;;;31.55;5.78;;;;;;;;;;4983797;28;20508;-64
2022/08/31 13:32:32;;;;;;;44.58;6.63;;;;;;;;;;5011201;28;20389;-67
2022/08/31 13:35:07;;;;;;;35.88;6.18;;;;;;;;;;5016836;28;20116;-64
2022/08/31 13:37:40;;;;;;;37.63;6.68;;;;;;;;;;5010717;28;20053;-66
2022/08/31 13:40:11;;;;;;;37.78;5.95;;;;;;;;;;5016303;28;20049;-64
2022/08/31 13:42:44;;;;;;;38.35;6.60;;;;;;;;;;5012304;28;20159;-66
2022/08/31 13:45:23;;;;;;;34.58;6.30;;;;;;;;;;5008002;28;20081;-67
2022/08/31 13:47:53;;;;;;;37.22;6.65;;;;;;;;;;4997912;28;20303;-68
2022/08/31 13:50:21;;;;;;;42.75;6.63;;;;;;;;;;5012713;28;20135;-68
2022/08/31 13:53:00;;;;;;;47.97;6.47;;;;;;;;;;5015983;28;20046;-68
2022/08/31 13:55:42;;;;;;;41.63;5.90;;;;;;;;;;5018770;28;20042;-69
2022/08/31 13:58:27;;;;;;;39.67;5.97;;;;;;;;;;5011358;28;20049;-67
2022/08/31 14:01:22;;;;;;;47.35;6.22;;;;;;;;;;5011184;28;20105;-69
2022/08/31 14:03:57;;;;;;;45.10;6.68;;;;;;;;;;4998094;28;20136;-66
2022/08/31 14:06:36;;;;;;;47.25;6.72;;;;;;;;;;5006635;28;20104;-66
2022/08/31 14:09:15;;;;;;;36.33;5.93;;;;;;;;;;5001038;28;20073;-66
2022/08/31 14:11:51;;;;;;;42.92;6.45;;;;;;;;;;4996731;28;20051;-66
2022/08/31 14:14:18;;;;;;;33.33;6.22;;;;;;;;;;5019283;28;20073;-69
2022/08/31 14:16:46;;;;;;;32.22;6.22;;;;;;;;;;5001472;28;20129;-67
2022/08/31 14:19:12;;;;;;;29.58;5.47;;;;;;;;;;5012655;28;20065;-68
2022/08/31 14:21:40;;;;;;;34.47;6.00;;;;;;;;;;5012594;28;20061;-69
2022/08/31 14:24:10;;;;;;;39.38;6.70;;;;;;;;;;5012483;28;20124;-68
2022/08/31 14:26:40;;;;;;;30.17;5.95;;;;;;;;;;5004655;28;20053;-68
2022/08/31 14:29:11;;;;;;;36.55;5.82;;;;;;;;;;5013648;28;20115;-66
2022/08/31 14:31:51;;;;;;;35.75;5.72;;;;;;;;;;5015878;28;20511;-68
2022/08/31 14:34:26;;;;;;;33.78;5.50;;;;;;;;;;5012947;28;20126;-65
2022/08/31 14:37:18;;;;;;;40.40;5.95;;;;;;;;;;5002703;28;20128;-70
2022/08/31 14:39:46;;;;;;;36.33;5.55;;;;;;;;;;5006593;28;20045;-71
2022/08/31 14:42:15;;;;;;;38.75;5.88;;;;;;;;;;5014673;28;20876;-69
2022/08/31 14:45:04;;;;;;;38.65;6.20;;;;;;;;;;5002713;28;20088;-70
2022/08/31 14:47:37;;;;;;;42.80;5.60;;;;;;;;;;5015334;28;20507;-68
2022/08/31 14:50:06;;;;;;;;;;;;;;;;;;5013598;28;20046;-69
2022/08/31 14:52:34;;;;;;;32.35;6.07;;;;;;;;;;5003642;28;19937;-67
2022/08/31 14:55:01;;;;;;;30.55;5.20;;;;;;;;;;5012446;28;20054;-69
2022/08/31 14:57:31;;;;;;;28.95;5.85;;;;;;;;;;5012802;28;20076;-68
2022/08/31 15:00:00;;;;;;;31.77;5.55;;;;;;;;;;5011499;28;20068;-68
2022/08/31 15:02:32;;;;;;;30.63;5.53;;;;;;;;;;5001148;28;20065;-69
2022/08/31 15:05:05;;;;;;;29.33;4.70;;;;;;;;;;4993484;28;20049;-68
2022/08/31 15:07:33;;;;;;;33.05;6.28;;;;;;;;;;4983352;28;20066;-70
2022/08/31 15:10:00;;;;;;;34.25;5.45;;;;;;;;;;5009983;28;20077;-69
2022/08/31 15:12:27;;;;;;;33.97;6.20;;;;;;;;;;5009679;28;20055;-71
2022/08/31 15:14:58;;;;;;;25.85;5.53;;;;;;;;;;5010776;28;20056;-69